sensor_id;sensor_type;location;lat;lon;timestamp;P1;durP1;ratioP1;P2;durP2;ratioP2
74465;SDS011;62916;50.044;15.938;2024-02-14T00:01:35;2.70;;;2.50;;
74465;SDS011;62916;50.044;15.938;2024-02-14T00:04:06;2.70;;;2.20;;
74465;SDS011;62916;50.044;15.938;2024-02-14T00:06:38;3.10;;;2.30;;
74465;SDS011;62916;50.044;15.938;2024-02-14T00:09:09;3.00;;;2.40;;
74465;SDS011;62916;50.044;15.938;2024-02-14T00:11:40;3.00;;;2.20;;
74465;SDS011;62916;50.044;15.938;2024-02-14T00:14:12;3.40;;;2.20;;
74465;SDS011;62916;50.044;15.938;2024-02-14T00:16:43;3.00;;;2.00;;
74465;SDS011;62916;50.044;15.938;2024-02-14T00:19:14;2.90;;;2.60;;
74465;SDS011;62916;50.044;15.938;2024-02-14T00:21:45;3.70;;;2.40;;
74465;SDS011;62916;50.044;15.938;2024-02-14T00:24:16;3.10;;;2.70;;
74465;SDS011;62916;50.044;15.938;2024-02-14T00:26:47;2.70;;;2.20;;
74465;SDS011;62916;50.044;15.938;2024-02-14T00:29:18;3.50;;;2.60;;
74465;SDS011;62916;50.044;15.938;2024-02-14T00:31:49;3.40;;;2.70;;
74465;SDS011;62916;50.044;15.938;2024-02-14T00:34:19;2.80;;;2.20;;
74465;SDS011;62916;50.044;15.938;2024-02-14T00:36:50;3.00;;;2.40;;
74465;SDS011;62916;50.044;15.938;2024-02-14T00:39:21;2.50;;;2.10;;
74465;SDS011;62916;50.044;15.938;2024-02-14T00:41:52;3.00;;;2.70;;
74465;SDS011;62916;50.044;15.938;2024-02-14T00:44:24;3.10;;;2.30;;
74465;SDS011;62916;50.044;15.938;2024-02-14T00:46:56;2.90;;;2.10;;
74465;SDS011;62916;50.044;15.938;2024-02-14T00:49:29;3.60;;;2.50;;
74465;SDS011;62916;50.044;15.938;2024-02-14T00:52:03;3.40;;;2.30;;
74465;SDS011;62916;50.044;15.938;2024-02-14T00:54:36;2.80;;;2.10;;
74465;SDS011;62916;50.044;15.938;2024-02-14T00:57:07;3.30;;;2.20;;
74465;SDS011;62916;50.044;15.938;2024-02-14T00:59:39;2.90;;;2.30;;
74465;SDS011;62916;50.044;15.938;2024-02-14T01:02:10;3.60;;;2.90;;
74465;SDS011;62916;50.044;15.938;2024-02-14T01:04:41;3.00;;;2.40;;
74465;SDS011;62916;50.044;15.938;2024-02-14T01:07:12;3.20;;;2.60;;
74465;SDS011;62916;50.044;15.938;2024-02-14T01:09:43;3.10;;;2.30;;
74465;SDS011;62916;50.044;15.938;2024-02-14T01:12:13;4.70;;;2.80;;
74465;SDS011;62916;50.044;15.938;2024-02-14T01:14:44;3.00;;;2.60;;
74465;SDS011;62916;50.044;15.938;2024-02-14T01:17:15;3.20;;;2.40;;
74465;SDS011;62916;50.044;15.938;2024-02-14T01:19:46;3.90;;;2.20;;
74465;SDS011;62916;50.044;15.938;2024-02-14T01:22:18;3.50;;;2.50;;
74465;SDS011;62916;50.044;15.938;2024-02-14T01:24:49;3.10;;;2.40;;
74465;SDS011;62916;50.044;15.938;2024-02-14T01:27:20;2.70;;;2.30;;
74465;SDS011;62916;50.044;15.938;2024-02-14T01:29:52;3.50;;;2.70;;
74465;SDS011;62916;50.044;15.938;2024-02-14T01:32:23;3.10;;;2.30;;
74465;SDS011;62916;50.044;15.938;2024-02-14T01:34:57;3.30;;;2.30;;
74465;SDS011;62916;50.044;15.938;2024-02-14T01:37:28;3.40;;;2.00;;
74465;SDS011;62916;50.044;15.938;2024-02-14T01:39:59;3.10;;;2.40;;
74465;SDS011;62916;50.044;15.938;2024-02-14T01:42:31;3.20;;;2.70;;
74465;SDS011;62916;50.044;15.938;2024-02-14T01:45:02;3.20;;;2.50;;
74465;SDS011;62916;50.044;15.938;2024-02-14T01:47:34;3.20;;;2.60;;
74465;SDS011;62916;50.044;15.938;2024-02-14T01:50:07;3.70;;;2.70;;
74465;SDS011;62916;50.044;15.938;2024-02-14T01:52:39;2.80;;;2.30;;
74465;SDS011;62916;50.044;15.938;2024-02-14T01:55:12;3.10;;;2.80;;
74465;SDS011;62916;50.044;15.938;2024-02-14T01:57:43;3.00;;;2.50;;
74465;SDS011;62916;50.044;15.938;2024-02-14T02:00:14;3.30;;;2.50;;
74465;SDS011;62916;50.044;15.938;2024-02-14T02:02:47;3.30;;;2.50;;
74465;SDS011;62916;50.044;15.938;2024-02-14T02:05:18;3.30;;;2.20;;
74465;SDS011;62916;50.044;15.938;2024-02-14T02:07:49;2.60;;;2.30;;
74465;SDS011;62916;50.044;15.938;2024-02-14T02:10:21;3.80;;;2.60;;
74465;SDS011;62916;50.044;15.938;2024-02-14T02:12:58;3.10;;;2.20;;
74465;SDS011;62916;50.044;15.938;2024-02-14T02:15:29;2.50;;;2.30;;
74465;SDS011;62916;50.044;15.938;2024-02-14T02:18:00;3.10;;;2.10;;
74465;SDS011;62916;50.044;15.938;2024-02-14T02:20:34;3.30;;;2.60;;
74465;SDS011;62916;50.044;15.938;2024-02-14T02:23:06;3.60;;;2.40;;
74465;SDS011;62916;50.044;15.938;2024-02-14T02:25:37;2.60;;;2.40;;
74465;SDS011;62916;50.044;15.938;2024-02-14T02:28:08;3.40;;;2.30;;
74465;SDS011;62916;50.044;15.938;2024-02-14T02:30:39;2.50;;;2.10;;
74465;SDS011;62916;50.044;15.938;2024-02-14T02:33:13;3.00;;;2.30;;
74465;SDS011;62916;50.044;15.938;2024-02-14T02:35:45;3.70;;;2.60;;
74465;SDS011;62916;50.044;15.938;2024-02-14T02:38:18;2.60;;;2.20;;
74465;SDS011;62916;50.044;15.938;2024-02-14T02:40:49;2.60;;;2.30;;
74465;SDS011;62916;50.044;15.938;2024-02-14T02:43:20;2.70;;;2.30;;
74465;SDS011;62916;50.044;15.938;2024-02-14T02:45:51;4.20;;;2.90;;
74465;SDS011;62916;50.044;15.938;2024-02-14T02:48:22;3.20;;;2.90;;
74465;SDS011;62916;50.044;15.938;2024-02-14T02:50:54;3.20;;;2.90;;
74465;SDS011;62916;50.044;15.938;2024-02-14T02:53:25;3.00;;;2.50;;
74465;SDS011;62916;50.044;15.938;2024-02-14T02:55:56;2.90;;;2.60;;
74465;SDS011;62916;50.044;15.938;2024-02-14T02:58:28;3.30;;;2.20;;
74465;SDS011;62916;50.044;15.938;2024-02-14T03:00:59;3.30;;;2.80;;
74465;SDS011;62916;50.044;15.938;2024-02-14T03:03:31;2.90;;;2.60;;
74465;SDS011;62916;50.044;15.938;2024-02-14T03:06:04;3.30;;;2.30;;
74465;SDS011;62916;50.044;15.938;2024-02-14T03:08:36;2.80;;;2.50;;
74465;SDS011;62916;50.044;15.938;2024-02-14T03:11:08;3.00;;;2.20;;
74465;SDS011;62916;50.044;15.938;2024-02-14T03:13:39;2.70;;;2.40;;
74465;SDS011;62916;50.044;15.938;2024-02-14T03:16:12;3.10;;;2.20;;
74465;SDS011;62916;50.044;15.938;2024-02-14T03:18:45;3.10;;;2.30;;
74465;SDS011;62916;50.044;15.938;2024-02-14T03:21:16;3.30;;;2.20;;
74465;SDS011;62916;50.044;15.938;2024-02-14T03:23:47;3.30;;;2.60;;
74465;SDS011;62916;50.044;15.938;2024-02-14T03:26:18;2.90;;;2.30;;
74465;SDS011;62916;50.044;15.938;2024-02-14T03:28:49;2.50;;;2.10;;
74465;SDS011;62916;50.044;15.938;2024-02-14T03:31:22;2.40;;;2.20;;
74465;SDS011;62916;50.044;15.938;2024-02-14T03:33:54;2.90;;;2.50;;
74465;SDS011;62916;50.044;15.938;2024-02-14T03:36:25;2.30;;;2.10;;
74465;SDS011;62916;50.044;15.938;2024-02-14T03:38:59;3.30;;;2.10;;
74465;SDS011;62916;50.044;15.938;2024-02-14T03:41:32;2.90;;;2.30;;
74465;SDS011;62916;50.044;15.938;2024-02-14T03:44:05;3.70;;;2.00;;
74465;SDS011;62916;50.044;15.938;2024-02-14T03:46:37;3.10;;;2.40;;
74465;SDS011;62916;50.044;15.938;2024-02-14T03:49:08;2.60;;;2.10;;
74465;SDS011;62916;50.044;15.938;2024-02-14T03:51:40;2.80;;;2.10;;
74465;SDS011;62916;50.044;15.938;2024-02-14T03:54:11;4.00;;;2.30;;
74465;SDS011;62916;50.044;15.938;2024-02-14T03:56:45;3.00;;;2.40;;
74465;SDS011;62916;50.044;15.938;2024-02-14T03:59:16;2.60;;;2.40;;
74465;SDS011;62916;50.044;15.938;2024-02-14T04:01:53;2.50;;;2.10;;
74465;SDS011;62916;50.044;15.938;2024-02-14T04:04:26;3.40;;;2.40;;
74465;SDS011;62916;50.044;15.938;2024-02-14T04:06:57;3.00;;;2.70;;
74465;SDS011;62916;50.044;15.938;2024-02-14T04:09:29;3.10;;;2.40;;
74465;SDS011;62916;50.044;15.938;2024-02-14T04:12:01;2.40;;;2.00;;
74465;SDS011;62916;50.044;15.938;2024-02-14T04:14:33;3.10;;;2.40;;
74465;SDS011;62916;50.044;15.938;2024-02-14T04:17:05;3.30;;;2.20;;
74465;SDS011;62916;50.044;15.938;2024-02-14T04:19:36;3.40;;;2.30;;
74465;SDS011;62916;50.044;15.938;2024-02-14T04:22:07;3.70;;;2.80;;
74465;SDS011;62916;50.044;15.938;2024-02-14T04:24:38;2.90;;;2.60;;
74465;SDS011;62916;50.044;15.938;2024-02-14T04:27:09;2.40;;;2.20;;
74465;SDS011;62916;50.044;15.938;2024-02-14T04:29:40;3.10;;;2.30;;
74465;SDS011;62916;50.044;15.938;2024-02-14T04:32:14;2.50;;;2.20;;
74465;SDS011;62916;50.044;15.938;2024-02-14T04:34:47;3.00;;;2.50;;
74465;SDS011;62916;50.044;15.938;2024-02-14T04:37:18;2.20;;;2.00;;
74465;SDS011;62916;50.044;15.938;2024-02-14T04:39:49;3.10;;;2.20;;
74465;SDS011;62916;50.044;15.938;2024-02-14T04:42:20;2.60;;;2.30;;
74465;SDS011;62916;50.044;15.938;2024-02-14T04:44:51;3.80;;;2.40;;
74465;SDS011;62916;50.044;15.938;2024-02-14T04:47:21;3.20;;;2.20;;
74465;SDS011;62916;50.044;15.938;2024-02-14T04:49:53;2.80;;;2.10;;
74465;SDS011;62916;50.044;15.938;2024-02-14T04:52:24;3.50;;;2.20;;
74465;SDS011;62916;50.044;15.938;2024-02-14T04:54:55;2.30;;;1.90;;
74465;SDS011;62916;50.044;15.938;2024-02-14T04:57:26;2.70;;;2.10;;
74465;SDS011;62916;50.044;15.938;2024-02-14T04:59:57;3.00;;;2.40;;
74465;SDS011;62916;50.044;15.938;2024-02-14T05:02:28;3.30;;;2.50;;
74465;SDS011;62916;50.044;15.938;2024-02-14T05:04:58;5.90;;;2.70;;
74465;SDS011;62916;50.044;15.938;2024-02-14T05:07:30;4.00;;;2.60;;
74465;SDS011;62916;50.044;15.938;2024-02-14T05:10:02;6.30;;;3.00;;
74465;SDS011;62916;50.044;15.938;2024-02-14T05:12:35;5.70;;;3.20;;
74465;SDS011;62916;50.044;15.938;2024-02-14T05:15:07;6.80;;;3.40;;
74465;SDS011;62916;50.044;15.938;2024-02-14T05:17:41;6.90;;;3.20;;
74465;SDS011;62916;50.044;15.938;2024-02-14T05:20:13;15.30;;;4.10;;
74465;SDS011;62916;50.044;15.938;2024-02-14T05:22:44;19.30;;;4.30;;
74465;SDS011;62916;50.044;15.938;2024-02-14T05:25:15;18.40;;;4.80;;
74465;SDS011;62916;50.044;15.938;2024-02-14T05:27:46;14.50;;;3.90;;
74465;SDS011;62916;50.044;15.938;2024-02-14T05:30:17;14.00;;;3.60;;
74465;SDS011;62916;50.044;15.938;2024-02-14T05:32:48;9.40;;;3.50;;
74465;SDS011;62916;50.044;15.938;2024-02-14T05:35:21;13.80;;;4.50;;
74465;SDS011;62916;50.044;15.938;2024-02-14T05:37:52;10.70;;;3.30;;
74465;SDS011;62916;50.044;15.938;2024-02-14T05:40:23;14.40;;;4.10;;
74465;SDS011;62916;50.044;15.938;2024-02-14T05:42:54;13.90;;;4.20;;
74465;SDS011;62916;50.044;15.938;2024-02-14T05:45:25;10.50;;;3.50;;
74465;SDS011;62916;50.044;15.938;2024-02-14T05:47:56;11.80;;;3.40;;
74465;SDS011;62916;50.044;15.938;2024-02-14T05:50:27;7.90;;;3.50;;
74465;SDS011;62916;50.044;15.938;2024-02-14T05:52:58;7.60;;;3.30;;
74465;SDS011;62916;50.044;15.938;2024-02-14T05:55:29;9.50;;;3.30;;
74465;SDS011;62916;50.044;15.938;2024-02-14T05:58:00;10.40;;;3.30;;
74465;SDS011;62916;50.044;15.938;2024-02-14T06:00:31;8.00;;;3.40;;
74465;SDS011;62916;50.044;15.938;2024-02-14T06:03:04;8.80;;;3.10;;
74465;SDS011;62916;50.044;15.938;2024-02-14T06:05:36;7.30;;;3.20;;
74465;SDS011;62916;50.044;15.938;2024-02-14T06:08:07;10.00;;;3.60;;
74465;SDS011;62916;50.044;15.938;2024-02-14T06:10:39;8.30;;;3.70;;
74465;SDS011;62916;50.044;15.938;2024-02-14T06:13:10;10.20;;;3.00;;
74465;SDS011;62916;50.044;15.938;2024-02-14T06:15:41;8.30;;;2.80;;
74465;SDS011;62916;50.044;15.938;2024-02-14T06:18:11;8.80;;;3.20;;
74465;SDS011;62916;50.044;15.938;2024-02-14T06:20:42;8.20;;;3.10;;
74465;SDS011;62916;50.044;15.938;2024-02-14T06:23:14;6.10;;;2.90;;
74465;SDS011;62916;50.044;15.938;2024-02-14T06:25:45;8.10;;;2.70;;
74465;SDS011;62916;50.044;15.938;2024-02-14T06:28:16;7.00;;;2.70;;
74465;SDS011;62916;50.044;15.938;2024-02-14T06:30:47;10.70;;;3.30;;
74465;SDS011;62916;50.044;15.938;2024-02-14T06:33:18;8.10;;;2.80;;
74465;SDS011;62916;50.044;15.938;2024-02-14T06:35:49;5.90;;;2.80;;
74465;SDS011;62916;50.044;15.938;2024-02-14T06:38:20;7.50;;;2.70;;
74465;SDS011;62916;50.044;15.938;2024-02-14T06:40:51;6.30;;;2.50;;
74465;SDS011;62916;50.044;15.938;2024-02-14T06:43:22;9.20;;;2.30;;
74465;SDS011;62916;50.044;15.938;2024-02-14T06:45:53;4.70;;;2.50;;
74465;SDS011;62916;50.044;15.938;2024-02-14T06:48:24;4.70;;;2.60;;
74465;SDS011;62916;50.044;15.938;2024-02-14T06:50:55;4.20;;;2.90;;
74465;SDS011;62916;50.044;15.938;2024-02-14T06:53:26;6.10;;;2.80;;
74465;SDS011;62916;50.044;15.938;2024-02-14T06:55:58;6.30;;;2.50;;
74465;SDS011;62916;50.044;15.938;2024-02-14T06:58:29;5.00;;;2.30;;
74465;SDS011;62916;50.044;15.938;2024-02-14T07:01:00;5.40;;;2.60;;
74465;SDS011;62916;50.044;15.938;2024-02-14T07:03:32;4.50;;;2.40;;
74465;SDS011;62916;50.044;15.938;2024-02-14T07:06:03;4.80;;;2.40;;
74465;SDS011;62916;50.044;15.938;2024-02-14T07:08:35;7.00;;;3.40;;
74465;SDS011;62916;50.044;15.938;2024-02-14T07:11:09;5.00;;;2.40;;
74465;SDS011;62916;50.044;15.938;2024-02-14T07:13:40;5.80;;;2.90;;
74465;SDS011;62916;50.044;15.938;2024-02-14T07:16:11;5.40;;;2.80;;
74465;SDS011;62916;50.044;15.938;2024-02-14T07:18:42;5.80;;;2.30;;
74465;SDS011;62916;50.044;15.938;2024-02-14T07:21:13;4.80;;;3.10;;
74465;SDS011;62916;50.044;15.938;2024-02-14T07:23:45;6.00;;;2.40;;
74465;SDS011;62916;50.044;15.938;2024-02-14T07:26:16;4.00;;;2.40;;
74465;SDS011;62916;50.044;15.938;2024-02-14T07:28:47;5.00;;;2.20;;
74465;SDS011;62916;50.044;15.938;2024-02-14T07:31:18;4.60;;;2.00;;
74465;SDS011;62916;50.044;15.938;2024-02-14T07:33:49;3.20;;;2.30;;
74465;SDS011;62916;50.044;15.938;2024-02-14T07:36:21;5.40;;;2.20;;
74465;SDS011;62916;50.044;15.938;2024-02-14T07:38:52;5.90;;;2.50;;
74465;SDS011;62916;50.044;15.938;2024-02-14T07:41:23;4.30;;;2.10;;
74465;SDS011;62916;50.044;15.938;2024-02-14T07:43:54;4.80;;;2.80;;
74465;SDS011;62916;50.044;15.938;2024-02-14T07:46:25;4.70;;;2.20;;
74465;SDS011;62916;50.044;15.938;2024-02-14T07:48:57;4.20;;;2.10;;
74465;SDS011;62916;50.044;15.938;2024-02-14T07:51:28;5.70;;;2.50;;
74465;SDS011;62916;50.044;15.938;2024-02-14T07:54:04;5.10;;;2.40;;
74465;SDS011;62916;50.044;15.938;2024-02-14T07:56:35;3.60;;;2.30;;
74465;SDS011;62916;50.044;15.938;2024-02-14T07:59:06;3.70;;;2.20;;
74465;SDS011;62916;50.044;15.938;2024-02-14T08:01:38;4.00;;;2.30;;
74465;SDS011;62916;50.044;15.938;2024-02-14T08:04:10;3.60;;;1.90;;
74465;SDS011;62916;50.044;15.938;2024-02-14T08:06:41;5.60;;;2.20;;
74465;SDS011;62916;50.044;15.938;2024-02-14T08:09:13;3.80;;;2.30;;
74465;SDS011;62916;50.044;15.938;2024-02-14T08:11:45;3.10;;;2.00;;
74465;SDS011;62916;50.044;15.938;2024-02-14T08:14:15;3.20;;;1.70;;
74465;SDS011;62916;50.044;15.938;2024-02-14T08:16:47;4.00;;;2.00;;
74465;SDS011;62916;50.044;15.938;2024-02-14T08:19:19;3.40;;;2.40;;
74465;SDS011;62916;50.044;15.938;2024-02-14T08:21:50;3.90;;;2.10;;
74465;SDS011;62916;50.044;15.938;2024-02-14T08:24:26;3.60;;;2.10;;
74465;SDS011;62916;50.044;15.938;2024-02-14T08:26:57;3.00;;;1.80;;
74465;SDS011;62916;50.044;15.938;2024-02-14T08:29:28;3.40;;;1.90;;
74465;SDS011;62916;50.044;15.938;2024-02-14T08:31:59;4.10;;;1.90;;
74465;SDS011;62916;50.044;15.938;2024-02-14T08:34:31;2.70;;;2.10;;
74465;SDS011;62916;50.044;15.938;2024-02-14T08:37:02;3.60;;;2.00;;
74465;SDS011;62916;50.044;15.938;2024-02-14T08:39:34;2.20;;;1.80;;
74465;SDS011;62916;50.044;15.938;2024-02-14T08:42:05;3.90;;;2.20;;
74465;SDS011;62916;50.044;15.938;2024-02-14T08:44:36;2.80;;;2.00;;
74465;SDS011;62916;50.044;15.938;2024-02-14T08:47:07;2.70;;;2.00;;
74465;SDS011;62916;50.044;15.938;2024-02-14T08:49:40;2.20;;;2.00;;
74465;SDS011;62916;50.044;15.938;2024-02-14T08:52:11;2.90;;;2.00;;
74465;SDS011;62916;50.044;15.938;2024-02-14T08:54:42;2.50;;;1.80;;
74465;SDS011;62916;50.044;15.938;2024-02-14T08:57:13;3.70;;;1.80;;
74465;SDS011;62916;50.044;15.938;2024-02-14T08:59:44;3.00;;;2.20;;
74465;SDS011;62916;50.044;15.938;2024-02-14T09:02:16;2.80;;;1.90;;
74465;SDS011;62916;50.044;15.938;2024-02-14T09:04:47;3.00;;;1.80;;
74465;SDS011;62916;50.044;15.938;2024-02-14T09:07:19;3.00;;;2.10;;
74465;SDS011;62916;50.044;15.938;2024-02-14T09:09:49;3.10;;;2.10;;
74465;SDS011;62916;50.044;15.938;2024-02-14T09:12:20;3.40;;;2.20;;
74465;SDS011;62916;50.044;15.938;2024-02-14T09:14:51;2.10;;;1.70;;
74465;SDS011;62916;50.044;15.938;2024-02-14T09:17:25;2.50;;;1.80;;
74465;SDS011;62916;50.044;15.938;2024-02-14T09:19:55;2.80;;;1.80;;
74465;SDS011;62916;50.044;15.938;2024-02-14T09:22:26;3.90;;;1.90;;
74465;SDS011;62916;50.044;15.938;2024-02-14T09:24:57;2.40;;;1.70;;
74465;SDS011;62916;50.044;15.938;2024-02-14T09:27:28;3.50;;;2.40;;
74465;SDS011;62916;50.044;15.938;2024-02-14T09:29:59;2.60;;;1.90;;
74465;SDS011;62916;50.044;15.938;2024-02-14T09:32:31;3.30;;;1.80;;
74465;SDS011;62916;50.044;15.938;2024-02-14T09:35:03;2.90;;;1.60;;
74465;SDS011;62916;50.044;15.938;2024-02-14T09:37:35;2.30;;;1.70;;
74465;SDS011;62916;50.044;15.938;2024-02-14T09:40:08;2.80;;;1.70;;
74465;SDS011;62916;50.044;15.938;2024-02-14T09:42:42;3.20;;;1.90;;
74465;SDS011;62916;50.044;15.938;2024-02-14T09:47:54;2.40;;;1.70;;
74465;SDS011;62916;50.044;15.938;2024-02-14T09:50:25;3.30;;;1.90;;
74465;SDS011;62916;50.044;15.938;2024-02-14T09:53:00;2.60;;;1.80;;
74465;SDS011;62916;50.044;15.938;2024-02-14T09:55:31;4.20;;;2.10;;
74465;SDS011;62916;50.044;15.938;2024-02-14T09:58:02;2.00;;;1.80;;
74465;SDS011;62916;50.044;15.938;2024-02-14T10:00:34;2.00;;;1.80;;
74465;SDS011;62916;50.044;15.938;2024-02-14T10:03:07;3.10;;;2.00;;
74465;SDS011;62916;50.044;15.938;2024-02-14T10:05:38;2.20;;;1.70;;
74465;SDS011;62916;50.044;15.938;2024-02-14T10:08:09;2.80;;;1.70;;
74465;SDS011;62916;50.044;15.938;2024-02-14T10:10:41;2.00;;;1.70;;
74465;SDS011;62916;50.044;15.938;2024-02-14T10:13:18;2.50;;;2.30;;
74465;SDS011;62916;50.044;15.938;2024-02-14T10:15:50;2.50;;;1.70;;
74465;SDS011;62916;50.044;15.938;2024-02-14T10:18:22;2.80;;;1.60;;
74465;SDS011;62916;50.044;15.938;2024-02-14T10:20:55;3.30;;;2.00;;
74465;SDS011;62916;50.044;15.938;2024-02-14T10:23:28;2.30;;;1.80;;
74465;SDS011;62916;50.044;15.938;2024-02-14T10:26:00;2.60;;;1.80;;
74465;SDS011;62916;50.044;15.938;2024-02-14T10:28:31;2.80;;;1.80;;
74465;SDS011;62916;50.044;15.938;2024-02-14T10:31:11;2.30;;;1.70;;
74465;SDS011;62916;50.044;15.938;2024-02-14T10:33:42;2.70;;;2.00;;
74465;SDS011;62916;50.044;15.938;2024-02-14T10:36:13;3.80;;;1.80;;
74465;SDS011;62916;50.044;15.938;2024-02-14T10:38:46;2.60;;;1.70;;
74465;SDS011;62916;50.044;15.938;2024-02-14T10:41:19;3.10;;;2.00;;
74465;SDS011;62916;50.044;15.938;2024-02-14T10:43:50;1.90;;;1.70;;
74465;SDS011;62916;50.044;15.938;2024-02-14T10:46:22;2.60;;;1.80;;
74465;SDS011;62916;50.044;15.938;2024-02-14T10:48:59;1.90;;;1.70;;
74465;SDS011;62916;50.044;15.938;2024-02-14T10:51:33;2.70;;;1.60;;
74465;SDS011;62916;50.044;15.938;2024-02-14T10:54:07;2.20;;;1.50;;
74465;SDS011;62916;50.044;15.938;2024-02-14T10:56:40;1.70;;;1.60;;
74465;SDS011;62916;50.044;15.938;2024-02-14T10:59:15;2.50;;;1.50;;
74465;SDS011;62916;50.044;15.938;2024-02-14T11:01:48;2.60;;;1.80;;
74465;SDS011;62916;50.044;15.938;2024-02-14T11:04:20;2.80;;;1.70;;
74465;SDS011;62916;50.044;15.938;2024-02-14T11:06:53;1.90;;;1.70;;
74465;SDS011;62916;50.044;15.938;2024-02-14T11:09:32;2.00;;;1.40;;
74465;SDS011;62916;50.044;15.938;2024-02-14T11:12:08;2.60;;;1.60;;
74465;SDS011;62916;50.044;15.938;2024-02-14T11:14:41;2.10;;;1.60;;
74465;SDS011;62916;50.044;15.938;2024-02-14T11:17:13;2.40;;;1.80;;
74465;SDS011;62916;50.044;15.938;2024-02-14T11:19:47;1.70;;;1.50;;
74465;SDS011;62916;50.044;15.938;2024-02-14T11:22:20;1.70;;;1.50;;
74465;SDS011;62916;50.044;15.938;2024-02-14T11:24:51;2.40;;;1.60;;
74465;SDS011;62916;50.044;15.938;2024-02-14T11:27:22;1.90;;;1.70;;
74465;SDS011;62916;50.044;15.938;2024-02-14T11:30:01;1.70;;;1.50;;
74465;SDS011;62916;50.044;15.938;2024-02-14T11:32:40;2.10;;;1.80;;
74465;SDS011;62916;50.044;15.938;2024-02-14T11:35:12;2.80;;;1.70;;
74465;SDS011;62916;50.044;15.938;2024-02-14T11:37:43;2.00;;;1.60;;
74465;SDS011;62916;50.044;15.938;2024-02-14T11:40:20;1.90;;;1.50;;
74465;SDS011;62916;50.044;15.938;2024-02-14T11:42:51;2.00;;;1.60;;
74465;SDS011;62916;50.044;15.938;2024-02-14T11:45:22;2.40;;;1.80;;
74465;SDS011;62916;50.044;15.938;2024-02-14T11:47:53;2.60;;;1.60;;
74465;SDS011;62916;50.044;15.938;2024-02-14T11:50:24;3.30;;;1.50;;
74465;SDS011;62916;50.044;15.938;2024-02-14T11:52:56;2.20;;;1.60;;
74465;SDS011;62916;50.044;15.938;2024-02-14T11:55:31;2.10;;;1.50;;
74465;SDS011;62916;50.044;15.938;2024-02-14T11:58:07;1.60;;;1.50;;
74465;SDS011;62916;50.044;15.938;2024-02-14T12:00:39;2.80;;;1.60;;
74465;SDS011;62916;50.044;15.938;2024-02-14T12:03:12;2.00;;;1.50;;
74465;SDS011;62916;50.044;15.938;2024-02-14T12:05:45;1.90;;;1.70;;
74465;SDS011;62916;50.044;15.938;2024-02-14T12:10:48;2.40;;;1.80;;
74465;SDS011;62916;50.044;15.938;2024-02-14T12:13:21;1.90;;;1.70;;
74465;SDS011;62916;50.044;15.938;2024-02-14T12:15:52;2.40;;;1.50;;
74465;SDS011;62916;50.044;15.938;2024-02-14T12:18:23;1.70;;;1.60;;
74465;SDS011;62916;50.044;15.938;2024-02-14T12:20:54;2.10;;;1.40;;
74465;SDS011;62916;50.044;15.938;2024-02-14T12:23:36;2.00;;;1.80;;
74465;SDS011;62916;50.044;15.938;2024-02-14T12:26:07;1.90;;;1.50;;
74465;SDS011;62916;50.044;15.938;2024-02-14T12:28:45;2.20;;;2.00;;
74465;SDS011;62916;50.044;15.938;2024-02-14T12:31:22;1.90;;;1.50;;
74465;SDS011;62916;50.044;15.938;2024-02-14T12:33:54;1.60;;;1.50;;
74465;SDS011;62916;50.044;15.938;2024-02-14T12:36:27;2.50;;;1.70;;
74465;SDS011;62916;50.044;15.938;2024-02-14T12:38:58;2.30;;;1.50;;
74465;SDS011;62916;50.044;15.938;2024-02-14T12:41:31;2.10;;;1.30;;
74465;SDS011;62916;50.044;15.938;2024-02-14T12:44:05;2.50;;;1.50;;
74465;SDS011;62916;50.044;15.938;2024-02-14T12:46:36;1.90;;;1.40;;
74465;SDS011;62916;50.044;15.938;2024-02-14T12:49:07;1.80;;;1.40;;
74465;SDS011;62916;50.044;15.938;2024-02-14T12:51:39;3.50;;;1.70;;
74465;SDS011;62916;50.044;15.938;2024-02-14T12:54:10;2.10;;;1.40;;
74465;SDS011;62916;50.044;15.938;2024-02-14T12:56:42;1.60;;;1.50;;
74465;SDS011;62916;50.044;15.938;2024-02-14T12:59:16;1.70;;;1.40;;
74465;SDS011;62916;50.044;15.938;2024-02-14T13:01:48;1.60;;;1.30;;
74465;SDS011;62916;50.044;15.938;2024-02-14T13:04:19;2.00;;;1.30;;
74465;SDS011;62916;50.044;15.938;2024-02-14T13:06:50;1.30;;;1.20;;
74465;SDS011;62916;50.044;15.938;2024-02-14T13:09:22;1.90;;;1.40;;
74465;SDS011;62916;50.044;15.938;2024-02-14T13:11:53;2.20;;;1.70;;
74465;SDS011;62916;50.044;15.938;2024-02-14T13:14:24;2.20;;;1.30;;
74465;SDS011;62916;50.044;15.938;2024-02-14T13:16:56;1.70;;;1.50;;
74465;SDS011;62916;50.044;15.938;2024-02-14T13:19:27;1.60;;;1.30;;
74465;SDS011;62916;50.044;15.938;2024-02-14T13:21:58;2.30;;;1.30;;
74465;SDS011;62916;50.044;15.938;2024-02-14T13:24:30;1.50;;;1.30;;
74465;SDS011;62916;50.044;15.938;2024-02-14T13:27:01;2.10;;;1.60;;
74465;SDS011;62916;50.044;15.938;2024-02-14T13:29:32;1.60;;;1.30;;
74465;SDS011;62916;50.044;15.938;2024-02-14T13:32:04;1.60;;;1.20;;
74465;SDS011;62916;50.044;15.938;2024-02-14T13:34:35;1.80;;;1.40;;
74465;SDS011;62916;50.044;15.938;2024-02-14T13:37:06;2.30;;;2.10;;
74465;SDS011;62916;50.044;15.938;2024-02-14T13:39:37;1.60;;;1.50;;
74465;SDS011;62916;50.044;15.938;2024-02-14T13:42:08;1.70;;;1.50;;
74465;SDS011;62916;50.044;15.938;2024-02-14T13:44:39;2.30;;;1.60;;
74465;SDS011;62916;50.044;15.938;2024-02-14T13:47:11;1.60;;;1.50;;
74465;SDS011;62916;50.044;15.938;2024-02-14T13:49:41;1.90;;;1.20;;
74465;SDS011;62916;50.044;15.938;2024-02-14T13:52:13;1.60;;;1.50;;
74465;SDS011;62916;50.044;15.938;2024-02-14T13:54:45;1.70;;;1.40;;
74465;SDS011;62916;50.044;15.938;2024-02-14T13:57:16;1.60;;;1.50;;
74465;SDS011;62916;50.044;15.938;2024-02-14T13:59:47;1.80;;;1.30;;
74465;SDS011;62916;50.044;15.938;2024-02-14T14:02:20;1.80;;;1.30;;
74465;SDS011;62916;50.044;15.938;2024-02-14T14:04:52;1.30;;;1.20;;
74465;SDS011;62916;50.044;15.938;2024-02-14T14:07:23;1.70;;;1.10;;
74465;SDS011;62916;50.044;15.938;2024-02-14T14:09:54;2.00;;;1.50;;
74465;SDS011;62916;50.044;15.938;2024-02-14T14:12:27;2.40;;;1.60;;
74465;SDS011;62916;50.044;15.938;2024-02-14T14:14:57;1.20;;;1.10;;
74465;SDS011;62916;50.044;15.938;2024-02-14T14:17:30;2.20;;;1.60;;
74465;SDS011;62916;50.044;15.938;2024-02-14T14:20:02;1.60;;;1.50;;
74465;SDS011;62916;50.044;15.938;2024-02-14T14:22:36;1.30;;;1.20;;
74465;SDS011;62916;50.044;15.938;2024-02-14T14:25:07;1.60;;;1.50;;
74465;SDS011;62916;50.044;15.938;2024-02-14T14:27:38;1.70;;;1.30;;
74465;SDS011;62916;50.044;15.938;2024-02-14T14:30:12;1.80;;;1.50;;
74465;SDS011;62916;50.044;15.938;2024-02-14T14:32:43;1.30;;;1.20;;
74465;SDS011;62916;50.044;15.938;2024-02-14T14:35:14;1.70;;;1.10;;
74465;SDS011;62916;50.044;15.938;2024-02-14T14:37:45;1.20;;;1.10;;
74465;SDS011;62916;50.044;15.938;2024-02-14T14:40:16;1.20;;;1.00;;
74465;SDS011;62916;50.044;15.938;2024-02-14T14:42:49;1.80;;;1.30;;
74465;SDS011;62916;50.044;15.938;2024-02-14T14:45:20;1.40;;;1.20;;
74465;SDS011;62916;50.044;15.938;2024-02-14T14:47:51;1.50;;;1.30;;
74465;SDS011;62916;50.044;15.938;2024-02-14T14:50:22;1.60;;;1.10;;
74465;SDS011;62916;50.044;15.938;2024-02-14T14:52:53;1.50;;;1.30;;
74465;SDS011;62916;50.044;15.938;2024-02-14T14:55:25;1.60;;;1.20;;
74465;SDS011;62916;50.044;15.938;2024-02-14T14:58:13;2.30;;;2.20;;
74465;SDS011;62916;50.044;15.938;2024-02-14T15:00:44;1.20;;;1.00;;
74465;SDS011;62916;50.044;15.938;2024-02-14T15:03:15;1.20;;;1.10;;
74465;SDS011;62916;50.044;15.938;2024-02-14T15:05:46;1.60;;;1.50;;